sensor_id;sensor_type;location;lat;lon;timestamp;P1;durP1;ratioP1;P2;durP2;ratioP2
52072;SDS011;38074;51.232;6.826;2022-08-21T00:04:59;7.15;;;3.72;;
52072;SDS011;38074;51.232;6.826;2022-08-21T00:12:15;6.43;;;3.57;;
52072;SDS011;38074;51.232;6.826;2022-08-21T00:19:31;7.67;;;3.90;;
52072;SDS011;38074;51.232;6.826;2022-08-21T00:26:46;8.63;;;4.10;;
52072;SDS011;38074;51.232;6.826;2022-08-21T00:34:02;6.57;;;3.23;;
52072;SDS011;38074;51.232;6.826;2022-08-21T00:41:18;8.03;;;3.90;;
52072;SDS011;38074;51.232;6.826;2022-08-21T00:48:34;5.87;;;3.67;;
52072;SDS011;38074;51.232;6.826;2022-08-21T00:55:50;7.20;;;3.77;;
52072;SDS011;38074;51.232;6.826;2022-08-21T01:10:24;5.20;;;3.35;;
52072;SDS011;38074;51.232;6.826;2022-08-21T01:17:40;7.87;;;3.77;;
52072;SDS011;38074;51.232;6.826;2022-08-21T01:24:56;8.23;;;4.10;;
52072;SDS011;38074;51.232;6.826;2022-08-21T01:32:15;6.93;;;3.93;;
52072;SDS011;38074;51.232;6.826;2022-08-21T01:39:32;6.82;;;3.58;;
52072;SDS011;38074;51.232;6.826;2022-08-21T01:46:48;8.37;;;4.03;;
52072;SDS011;38074;51.232;6.826;2022-08-21T01:54:04;7.73;;;4.10;;
52072;SDS011;38074;51.232;6.826;2022-08-21T02:01:19;7.23;;;3.97;;
52072;SDS011;38074;51.232;6.826;2022-08-21T02:08:35;7.75;;;4.30;;
52072;SDS011;38074;51.232;6.826;2022-08-21T02:15:50;5.68;;;3.47;;
52072;SDS011;38074;51.232;6.826;2022-08-21T02:23:07;9.50;;;4.30;;
52072;SDS011;38074;51.232;6.826;2022-08-21T02:30:24;8.35;;;4.25;;
52072;SDS011;38074;51.232;6.826;2022-08-21T02:38:06;7.95;;;4.07;;
52072;SDS011;38074;51.232;6.826;2022-08-21T02:45:20;7.07;;;3.78;;
52072;SDS011;38074;51.232;6.826;2022-08-21T02:52:36;7.23;;;4.43;;
52072;SDS011;38074;51.232;6.826;2022-08-21T02:59:51;7.00;;;3.78;;
52072;SDS011;38074;51.232;6.826;2022-08-21T03:07:07;5.95;;;3.70;;
52072;SDS011;38074;51.232;6.826;2022-08-21T03:14:22;7.18;;;3.90;;
52072;SDS011;38074;51.232;6.826;2022-08-21T03:21:38;4.80;;;3.30;;
52072;SDS011;38074;51.232;6.826;2022-08-21T03:28:53;8.43;;;4.60;;
52072;SDS011;38074;51.232;6.826;2022-08-21T03:36:12;7.60;;;4.05;;
52072;SDS011;38074;51.232;6.826;2022-08-21T03:43:28;7.40;;;4.23;;
52072;SDS011;38074;51.232;6.826;2022-08-21T03:50:43;8.10;;;4.68;;
52072;SDS011;38074;51.232;6.826;2022-08-21T03:58:01;8.93;;;4.60;;
52072;SDS011;38074;51.232;6.826;2022-08-21T04:05:18;8.03;;;4.97;;
52072;SDS011;38074;51.232;6.826;2022-08-21T04:12:41;7.10;;;4.60;;
52072;SDS011;38074;51.232;6.826;2022-08-21T04:19:57;8.80;;;5.03;;
52072;SDS011;38074;51.232;6.826;2022-08-21T04:27:12;7.03;;;4.60;;
52072;SDS011;38074;51.232;6.826;2022-08-21T04:34:28;7.33;;;4.50;;
52072;SDS011;38074;51.232;6.826;2022-08-21T04:41:43;9.40;;;5.43;;
52072;SDS011;38074;51.232;6.826;2022-08-21T04:48:59;9.13;;;5.23;;
52072;SDS011;38074;51.232;6.826;2022-08-21T04:56:15;9.67;;;4.73;;
52072;SDS011;38074;51.232;6.826;2022-08-21T05:04:02;7.95;;;5.03;;
52072;SDS011;38074;51.232;6.826;2022-08-21T05:11:19;8.80;;;4.88;;
52072;SDS011;38074;51.232;6.826;2022-08-21T05:18:35;8.00;;;4.53;;
52072;SDS011;38074;51.232;6.826;2022-08-21T05:25:52;8.67;;;5.10;;
52072;SDS011;38074;51.232;6.826;2022-08-21T05:33:07;6.32;;;4.53;;
52072;SDS011;38074;51.232;6.826;2022-08-21T05:40:23;8.00;;;5.17;;
52072;SDS011;38074;51.232;6.826;2022-08-21T05:47:39;10.00;;;5.75;;
52072;SDS011;38074;51.232;6.826;2022-08-21T05:54:54;12.63;;;6.17;;
52072;SDS011;38074;51.232;6.826;2022-08-21T06:02:10;8.35;;;5.25;;
52072;SDS011;38074;51.232;6.826;2022-08-21T06:09:26;11.02;;;6.32;;
52072;SDS011;38074;51.232;6.826;2022-08-21T06:16:41;8.80;;;6.30;;
52072;SDS011;38074;51.232;6.826;2022-08-21T06:23:57;8.88;;;5.90;;
52072;SDS011;38074;51.232;6.826;2022-08-21T06:31:17;7.95;;;5.82;;
52072;SDS011;38074;51.232;6.826;2022-08-21T06:38:34;8.25;;;5.50;;
52072;SDS011;38074;51.232;6.826;2022-08-21T06:45:50;9.57;;;5.47;;
52072;SDS011;38074;51.232;6.826;2022-08-21T06:53:07;10.68;;;5.20;;
52072;SDS011;38074;51.232;6.826;2022-08-21T07:00:25;9.82;;;4.07;;
52072;SDS011;38074;51.232;6.826;2022-08-21T07:07:41;7.82;;;3.10;;
52072;SDS011;38074;51.232;6.826;2022-08-21T07:14:56;7.10;;;2.67;;
52072;SDS011;38074;51.232;6.826;2022-08-21T07:22:13;7.65;;;2.63;;
52072;SDS011;38074;51.232;6.826;2022-08-21T07:29:32;4.90;;;2.15;;
52072;SDS011;38074;51.232;6.826;2022-08-21T07:36:48;5.82;;;1.80;;
52072;SDS011;38074;51.232;6.826;2022-08-21T07:44:03;6.32;;;1.75;;
52072;SDS011;38074;51.232;6.826;2022-08-21T07:51:20;6.00;;;2.00;;
52072;SDS011;38074;51.232;6.826;2022-08-21T07:58:39;4.05;;;1.27;;
52072;SDS011;38074;51.232;6.826;2022-08-21T08:05:55;4.17;;;1.17;;
52072;SDS011;38074;51.232;6.826;2022-08-21T08:20:27;4.37;;;1.37;;
52072;SDS011;38074;51.232;6.826;2022-08-21T08:27:44;5.75;;;1.35;;
52072;SDS011;38074;51.232;6.826;2022-08-21T08:34:59;3.67;;;1.25;;
52072;SDS011;38074;51.232;6.826;2022-08-21T08:42:18;4.30;;;1.17;;
52072;SDS011;38074;51.232;6.826;2022-08-21T08:49:37;4.65;;;1.42;;
52072;SDS011;38074;51.232;6.826;2022-08-21T08:57:09;4.10;;;0.70;;
52072;SDS011;38074;51.232;6.826;2022-08-21T09:04:30;3.08;;;0.80;;
52072;SDS011;38074;51.232;6.826;2022-08-21T09:11:57;4.40;;;0.73;;
52072;SDS011;38074;51.232;6.826;2022-08-21T09:26:40;3.55;;;0.73;;
52072;SDS011;38074;51.232;6.826;2022-08-21T09:34:09;8.88;;;1.77;;
52072;SDS011;38074;51.232;6.826;2022-08-21T09:41:31;9.32;;;2.40;;
52072;SDS011;38074;51.232;6.826;2022-08-21T09:48:51;4.45;;;1.10;;
52072;SDS011;38074;51.232;6.826;2022-08-21T09:56:22;2.50;;;0.90;;
52072;SDS011;38074;51.232;6.826;2022-08-21T10:04:07;2.80;;;1.20;;
52072;SDS011;38074;51.232;6.826;2022-08-21T10:11:24;4.03;;;0.98;;
52072;SDS011;38074;51.232;6.826;2022-08-21T10:19:03;3.15;;;0.95;;
52072;SDS011;38074;51.232;6.826;2022-08-21T10:42:12;3.78;;;0.63;;
52072;SDS011;38074;51.232;6.826;2022-08-21T10:49:49;3.70;;;0.60;;
52072;SDS011;38074;51.232;6.826;2022-08-21T10:57:24;4.63;;;0.80;;
52072;SDS011;38074;51.232;6.826;2022-08-21T11:04:50;11.00;;;1.30;;
52072;SDS011;38074;51.232;6.826;2022-08-21T11:19:42;3.47;;;1.10;;
52072;SDS011;38074;51.232;6.826;2022-08-21T11:34:39;4.45;;;1.48;;
52072;SDS011;38074;51.232;6.826;2022-08-21T11:49:43;5.73;;;1.30;;
52072;SDS011;38074;51.232;6.826;2022-08-21T11:57:14;7.00;;;1.13;;
52072;SDS011;38074;51.232;6.826;2022-08-21T12:04:42;5.87;;;1.03;;
52072;SDS011;38074;51.232;6.826;2022-08-21T12:19:29;4.15;;;0.80;;
52072;SDS011;38074;51.232;6.826;2022-08-21T12:26:50;3.65;;;1.02;;
52072;SDS011;38074;51.232;6.826;2022-08-21T12:34:08;3.72;;;1.13;;
52072;SDS011;38074;51.232;6.826;2022-08-21T12:48:52;2.83;;;1.08;;
52072;SDS011;38074;51.232;6.826;2022-08-21T12:56:13;3.88;;;0.70;;
52072;SDS011;38074;51.232;6.826;2022-08-21T13:03:30;2.20;;;0.80;;
52072;SDS011;38074;51.232;6.826;2022-08-21T13:10:55;2.55;;;0.70;;
52072;SDS011;38074;51.232;6.826;2022-08-21T13:18:24;1.70;;;0.45;;
52072;SDS011;38074;51.232;6.826;2022-08-21T13:25:42;2.20;;;0.68;;
52072;SDS011;38074;51.232;6.826;2022-08-21T13:32:59;2.13;;;0.87;;
52072;SDS011;38074;51.232;6.826;2022-08-21T13:40:24;1.98;;;0.50;;
52072;SDS011;38074;51.232;6.826;2022-08-21T13:47:45;1.67;;;0.50;;
52072;SDS011;38074;51.232;6.826;2022-08-21T13:55:11;1.30;;;0.70;;
52072;SDS011;38074;51.232;6.826;2022-08-21T14:02:37;2.22;;;0.43;;
52072;SDS011;38074;51.232;6.826;2022-08-21T14:09:54;1.30;;;0.30;;
52072;SDS011;38074;51.232;6.826;2022-08-21T14:17:13;1.03;;;0.40;;
52072;SDS011;38074;51.232;6.826;2022-08-21T14:24:40;2.40;;;0.50;;
52072;SDS011;38074;51.232;6.826;2022-08-21T14:31:56;2.13;;;0.30;;
52072;SDS011;38074;51.232;6.826;2022-08-21T14:39:14;1.83;;;0.80;;
52072;SDS011;38074;51.232;6.826;2022-08-21T14:46:30;2.23;;;0.60;;
52072;SDS011;38074;51.232;6.826;2022-08-21T14:53:47;3.30;;;0.60;;
52072;SDS011;38074;51.232;6.826;2022-08-21T15:01:03;2.67;;;0.50;;
52072;SDS011;38074;51.232;6.826;2022-08-21T15:08:21;2.97;;;0.50;;
52072;SDS011;38074;51.232;6.826;2022-08-21T15:15:41;2.10;;;0.70;;
52072;SDS011;38074;51.232;6.826;2022-08-21T15:22:58;2.35;;;0.55;;
52072;SDS011;38074;51.232;6.826;2022-08-21T15:30:13;1.57;;;0.60;;
52072;SDS011;38074;51.232;6.826;2022-08-21T15:37:29;2.00;;;0.37;;
52072;SDS011;38074;51.232;6.826;2022-08-21T15:44:44;3.47;;;0.70;;
52072;SDS011;38074;51.232;6.826;2022-08-21T15:59:18;1.60;;;0.40;;
52072;SDS011;38074;51.232;6.826;2022-08-21T16:06:36;1.92;;;0.80;;
52072;SDS011;38074;51.232;6.826;2022-08-21T16:13:52;2.67;;;0.80;;
52072;SDS011;38074;51.232;6.826;2022-08-21T16:21:08;2.07;;;0.50;;
52072;SDS011;38074;51.232;6.826;2022-08-21T16:28:23;2.50;;;0.77;;
52072;SDS011;38074;51.232;6.826;2022-08-21T16:35:39;3.87;;;0.53;;
52072;SDS011;38074;51.232;6.826;2022-08-21T16:42:55;1.43;;;0.40;;
52072;SDS011;38074;51.232;6.826;2022-08-21T16:50:15;1.07;;;0.40;;
52072;SDS011;38074;51.232;6.826;2022-08-21T16:57:32;1.95;;;0.50;;
52072;SDS011;38074;51.232;6.826;2022-08-21T17:04:48;1.67;;;0.63;;
52072;SDS011;38074;51.232;6.826;2022-08-21T17:12:03;3.17;;;0.80;;
52072;SDS011;38074;51.232;6.826;2022-08-21T17:19:21;2.83;;;0.70;;
52072;SDS011;38074;51.232;6.826;2022-08-21T17:26:37;1.15;;;0.45;;
52072;SDS011;38074;51.232;6.826;2022-08-21T17:33:53;3.07;;;0.53;;
52072;SDS011;38074;51.232;6.826;2022-08-21T17:41:08;2.00;;;0.50;;
52072;SDS011;38074;51.232;6.826;2022-08-21T17:48:24;2.07;;;0.50;;
52072;SDS011;38074;51.232;6.826;2022-08-21T17:55:40;1.67;;;0.33;;
52072;SDS011;38074;51.232;6.826;2022-08-21T18:03:03;5.63;;;0.90;;
52072;SDS011;38074;51.232;6.826;2022-08-21T18:10:29;2.15;;;0.70;;
52072;SDS011;38074;51.232;6.826;2022-08-21T18:17:46;3.60;;;0.90;;
52072;SDS011;38074;51.232;6.826;2022-08-21T18:25:03;3.28;;;0.93;;
52072;SDS011;38074;51.232;6.826;2022-08-21T18:32:21;1.53;;;0.70;;
52072;SDS011;38074;51.232;6.826;2022-08-21T18:39:38;2.50;;;0.60;;
52072;SDS011;38074;51.232;6.826;2022-08-21T18:46:59;1.27;;;0.40;;
52072;SDS011;38074;51.232;6.826;2022-08-21T18:54:18;2.05;;;0.50;;
52072;SDS011;38074;51.232;6.826;2022-08-21T19:01:33;2.10;;;0.60;;
52072;SDS011;38074;51.232;6.826;2022-08-21T19:08:50;1.98;;;0.40;;
52072;SDS011;38074;51.232;6.826;2022-08-21T19:16:05;1.63;;;0.50;;
52072;SDS011;38074;51.232;6.826;2022-08-21T19:23:22;4.00;;;0.70;;
52072;SDS011;38074;51.232;6.826;2022-08-21T19:37:56;4.40;;;1.80;;
52072;SDS011;38074;51.232;6.826;2022-08-21T19:45:11;5.80;;;1.90;;
52072;SDS011;38074;51.232;6.826;2022-08-21T19:52:28;4.03;;;1.57;;
52072;SDS011;38074;51.232;6.826;2022-08-21T19:59:46;5.43;;;1.50;;
52072;SDS011;38074;51.232;6.826;2022-08-21T20:07:02;4.07;;;1.67;;
52072;SDS011;38074;51.232;6.826;2022-08-21T20:14:19;3.83;;;1.50;;
52072;SDS011;38074;51.232;6.826;2022-08-21T20:21:37;3.83;;;1.17;;
52072;SDS011;38074;51.232;6.826;2022-08-21T20:36:10;4.70;;;0.90;;
52072;SDS011;38074;51.232;6.826;2022-08-21T20:43:26;2.67;;;1.07;;
52072;SDS011;38074;51.232;6.826;2022-08-21T20:50:43;4.37;;;1.20;;
52072;SDS011;38074;51.232;6.826;2022-08-21T20:58:07;3.97;;;0.93;;
52072;SDS011;38074;51.232;6.826;2022-08-21T21:05:28;4.32;;;1.35;;
52072;SDS011;38074;51.232;6.826;2022-08-21T21:12:48;6.15;;;1.20;;
52072;SDS011;38074;51.232;6.826;2022-08-21T21:20:18;3.55;;;1.05;;
52072;SDS011;38074;51.232;6.826;2022-08-21T21:27:41;2.40;;;1.00;;
52072;SDS011;38074;51.232;6.826;2022-08-21T21:35:04;2.13;;;0.70;;
52072;SDS011;38074;51.232;6.826;2022-08-21T21:42:27;3.05;;;0.85;;
52072;SDS011;38074;51.232;6.826;2022-08-21T21:57:37;3.60;;;1.05;;
52072;SDS011;38074;51.232;6.826;2022-08-21T22:20:59;4.05;;;1.10;;
52072;SDS011;38074;51.232;6.826;2022-08-21T22:28:24;3.53;;;1.10;;
52072;SDS011;38074;51.232;6.826;2022-08-21T22:35:41;5.18;;;0.90;;
52072;SDS011;38074;51.232;6.826;2022-08-21T22:57:39;2.15;;;0.90;;
52072;SDS011;38074;51.232;6.826;2022-08-21T23:05:00;4.87;;;0.73;;
52072;SDS011;38074;51.232;6.826;2022-08-21T23:12:24;2.60;;;0.70;;
52072;SDS011;38074;51.232;6.826;2022-08-21T23:35:09;2.08;;;0.70;;
52072;SDS011;38074;51.232;6.826;2022-08-21T23:42:40;3.03;;;0.93;;
52072;SDS011;38074;51.232;6.826;2022-08-21T23:50:06;4.03;;;1.17;;
